Time;durP1;ratioP1;P1;durP2;ratioP2;P2;SDS_P1;SDS_P2;PMS_P1;PMS_P2;Temp;Humidity;BMP_temperature;BMP_pressure;BME280_temperature;BME280_humidity;BME280_pressure;Samples;Min_cycle;Max_cycle;Signal;HPM_P1;HPM_P2
2023/05/05 00:01:38;;;;;;;;;;;20.00;36.30;;;;;;21170310;28;20270;-55
2023/05/05 00:11:38;;;;;;;;;;;19.90;36.60;;;;;;21168592;28;19924;-54
2023/05/05 00:21:39;;;;;;;;;;;19.70;37.00;;;;;;21168377;28;20321;-54
2023/05/05 00:31:40;;;;;;;;;;;19.80;37.00;;;;;;21168624;28;19932;-55
2023/05/05 00:41:41;;;;;;;;;;;19.70;37.00;;;;;;21167927;28;19930;-55
2023/05/05 00:51:41;;;;;;;;;;;19.60;37.40;;;;;;21166058;28;19924;-54
2023/05/05 01:01:42;;;;;;;;;;;19.50;37.60;;;;;;21166364;28;20471;-55
2023/05/05 01:12:01;;;;;;;;;;;19.50;37.80;;;;;;21164744;28;19978;-55
2023/05/05 01:22:05;;;;;;;;;;;19.60;37.70;;;;;;21164025;28;19924;-53
2023/05/05 01:32:08;;;;;;;;;;;19.50;38.00;;;;;;21162667;28;19965;-54
2023/05/05 01:42:12;;;;;;;;;;;19.30;38.50;;;;;;21163559;28;19924;-55
2023/05/05 01:52:14;;;;;;;;;;;19.20;38.90;;;;;;21163444;28;20437;-53
2023/05/05 02:02:15;;;;;;;;;;;18.80;39.30;;;;;;21162886;28;19928;-55
2023/05/05 02:12:16;;;;;;;;;;;18.60;39.80;;;;;;21162468;28;19923;-55
2023/05/05 02:22:17;;;;;;;;;;;18.40;40.20;;;;;;21161009;28;19974;-54
2023/05/05 02:32:31;;;;;;;;;;;18.60;40.00;;;;;;21176835;28;19923;-55
2023/05/05 02:42:34;;;;;;;;;;;18.60;40.00;;;;;;21177544;28;19924;-55
2023/05/05 02:52:35;;;;;;;;;;;18.50;40.20;;;;;;21176480;28;19924;-53
2023/05/05 03:02:59;;;;;;;;;;;18.50;40.50;;;;;;21174787;28;20471;-54
2023/05/05 03:13:01;;;;;;;;;;;18.40;40.70;;;;;;21168527;28;20014;-54
2023/05/05 03:23:01;;;;;;;;;;;18.40;40.80;;;;;;21173094;28;19970;-54
2023/05/05 03:33:02;;;;;;;;;;;18.40;41.00;;;;;;21173750;28;20373;-54
2023/05/05 03:43:02;;;;;;;;;;;18.30;41.20;;;;;;21172799;28;19946;-54
2023/05/05 03:53:03;;;;;;;;;;;18.20;41.50;;;;;;21173490;28;19924;-54
2023/05/05 04:03:04;;;;;;;;;;;18.20;41.40;;;;;;21171138;28;19934;-54
2023/05/05 04:13:05;;;;;;;;;;;18.10;41.90;;;;;;21171392;28;19924;-54
2023/05/05 04:23:06;;;;;;;;;;;18.00;41.60;;;;;;21168928;28;19968;-54
2023/05/05 04:33:06;;;;;;;;;;;17.70;42.30;;;;;;21170109;28;20011;-54
2023/05/05 04:43:07;;;;;;;;;;;17.70;43.10;;;;;;21167666;28;19931;-54
2023/05/05 04:53:07;;;;;;;;;;;17.30;44.40;;;;;;21166704;28;20388;-53
2023/05/05 05:03:09;;;;;;;;;;;17.00;44.80;;;;;;21166471;28;20493;-54
2023/05/05 05:13:10;;;;;;;;;;;16.40;46.20;;;;;;21167041;28;19934;-54
2023/05/05 05:23:10;;;;;;;;;;;16.10;46.80;;;;;;21165793;28;19924;-54
2023/05/05 05:33:11;;;;;;;;;;;15.80;47.40;;;;;;21165493;28;20266;-55
2023/05/05 05:43:11;;;;;;;;;;;15.70;47.80;;;;;;21165339;28;19923;-54
2023/05/05 05:53:12;;;;;;;;;;;15.60;48.60;;;;;;21164749;28;19923;-54
2023/05/05 06:03:13;;;;;;;;;;;15.60;49.10;;;;;;21175436;28;19931;-55
2023/05/05 06:13:13;;;;;;;;;;;15.60;48.90;;;;;;21180351;28;20171;-55
2023/05/05 06:23:14;;;;;;;;;;;15.60;49.10;;;;;;21179156;28;19970;-54
2023/05/05 06:33:15;;;;;;;;;;;15.60;48.90;;;;;;21179191;28;19924;-56
2023/05/05 06:43:16;;;;;;;;;;;16.20;48.40;;;;;;21178728;28;20010;-53
2023/05/05 06:53:17;;;;;;;;;;;16.80;47.00;;;;;;21178287;28;19931;-53
2023/05/05 07:03:17;;;;;;;;;;;17.40;45.40;;;;;;21176983;28;19927;-55
2023/05/05 07:13:18;;;;;;;;;;;18.10;43.50;;;;;;21174417;28;19972;-53
2023/05/05 07:23:19;;;;;;;;;;;18.70;40.20;;;;;;21173742;28;19924;-54
2023/05/05 07:33:19;;;;;;;;;;;19.30;38.70;;;;;;21174596;28;19924;-55
2023/05/05 07:43:20;;;;;;;;;;;19.70;37.90;;;;;;21172369;28;19924;-55
2023/05/05 07:53:21;;;;;;;;;;;20.20;36.70;;;;;;21171873;28;19924;-54
2023/05/05 08:03:23;;;;;;;;;;;20.40;36.70;;;;;;21170313;28;19975;-54
2023/05/05 08:13:23;;;;;;;;;;;20.60;36.70;;;;;;21171058;28;19924;-55
2023/05/05 08:23:24;;;;;;;;;;;21.00;35.90;;;;;;21169020;28;20427;-53
2023/05/05 08:33:24;;;;;;;;;;;21.10;35.80;;;;;;21170155;28;20034;-56
2023/05/05 08:43:25;;;;;;;;;;;21.40;35.40;;;;;;21168231;28;19924;-55
2023/05/05 08:53:47;;;;;;;;;;;21.60;34.80;;;;;;21168738;28;20402;-53
2023/05/05 09:03:48;;;;;;;;;;;21.80;34.90;;;;;;21166425;28;19953;-54
2023/05/05 09:13:48;;;;;;;;;;;22.00;34.60;;;;;;21165674;28;19949;-56
2023/05/05 09:24:08;;;;;;;;;;;22.20;34.70;;;;;;21164810;28;19924;-56
2023/05/05 09:34:13;;;;;;;;;;;22.70;36.20;;;;;;21163645;28;19930;-58
2023/05/05 09:44:14;;;;;;;;;;;23.00;35.30;;;;;;21165031;28;20356;-58
2023/05/05 09:54:22;;;;;;;;;;;23.20;34.20;;;;;;21164518;28;20284;-59
2023/05/05 10:04:27;;;;;;;;;;;23.30;34.30;;;;;;21162680;28;19934;-58
2023/05/05 10:14:30;;;;;;;;;;;23.40;33.60;;;;;;21163108;28;20011;-56
2023/05/05 10:24:47;;;;;;;;;;;23.20;33.70;;;;;;21162981;28;20340;-56
2023/05/05 10:34:48;;;;;;;;;;;23.60;33.10;;;;;;21160877;28;20253;-57
2023/05/05 10:44:50;;;;;;;;;;;24.00;32.10;;;;;;21162762;28;20022;-57
2023/05/05 10:54:53;;;;;;;;;;;23.70;31.50;;;;;;21175486;28;19931;-56
2023/05/05 11:05:21;;;;;;;;;;;24.10;32.30;;;;;;21176559;28;20245;-56
2023/05/05 11:15:30;;;;;;;;;;;24.20;29.30;;;;;;21169123;28;20292;-56
2023/05/05 11:25:40;;;;;;;;;;;24.10;29.00;;;;;;21173063;28;19984;-56
2023/05/05 11:35:53;;;;;;;;;;;24.50;29.80;;;;;;21171480;28;19924;-56
2023/05/05 11:46:29;;;;;;;;;;;24.80;27.70;;;;;;21171805;28;19924;-60
2023/05/05 11:56:29;;;;;;;;;;;24.60;28.00;;;;;;21046586;28;19971;-54
2023/05/05 12:06:31;;;;;;;;;;;24.70;27.10;;;;;;21171982;28;19924;-53
2023/05/05 12:16:31;;;;;;;;;;;24.90;26.90;;;;;;21170308;28;20385;-54
2023/05/05 12:26:32;;;;;;;;;;;24.90;26.80;;;;;;21169570;28;19932;-55
2023/05/05 12:36:34;;;;;;;;;;;24.90;26.80;;;;;;21167555;28;19973;-53
2023/05/05 12:46:44;;;;;;;;;;;25.30;26.90;;;;;;21168907;28;20007;-56
2023/05/05 12:56:46;;;;;;;;;;;25.60;25.20;;;;;;21168356;28;19977;-55
2023/05/05 13:06:47;;;;;;;;;;;25.70;26.10;;;;;;21167433;28;20069;-56
2023/05/05 13:16:48;;;;;;;;;;;25.70;26.50;;;;;;21166600;28;19924;-56
2023/05/05 13:26:49;;;;;;;;;;;25.80;26.50;;;;;;21164408;28;19931;-56
2023/05/05 13:36:50;;;;;;;;;;;26.10;25.60;;;;;;21165598;28;20325;-55
2023/05/05 13:46:51;;;;;;;;;;;26.10;23.00;;;;;;21163659;28;19924;-55
2023/05/05 13:56:51;;;;;;;;;;;26.30;23.10;;;;;;21164417;28;20432;-56
2023/05/05 14:06:52;;;;;;;;;;;26.50;21.40;;;;;;21163884;28;20001;-56
2023/05/05 14:16:53;;;;;;;;;;;26.40;23.00;;;;;;21163127;28;19971;-56
2023/05/05 14:26:53;;;;;;;;;;;26.50;22.80;;;;;;21178667;28;19924;-55
2023/05/05 14:36:54;;;;;;;;;;;26.60;22.60;;;;;;21179638;28;20007;-55
2023/05/05 14:46:55;;;;;;;;;;;26.80;23.10;;;;;;21178472;28;20001;-56
2023/05/05 14:56:57;;;;;;;;;;;26.70;23.30;;;;;;21178588;28;19924;-55
2023/05/05 15:06:57;;;;;;;;;;;26.90;23.60;;;;;;21177304;28;19928;-57
2023/05/05 15:16:58;;;;;;;;;;;26.80;23.10;;;;;;21176174;28;19977;-55
2023/05/05 15:26:58;;;;;;;;;;;26.80;24.10;;;;;;21170737;27;20016;-57
2023/05/05 15:36:59;;;;;;;;;;;27.00;23.10;;;;;;21181189;27;20025;-57
2023/05/05 15:47:00;;;;;;;;;;;27.10;24.00;;;;;;21171497;28;20031;-59
2023/05/05 15:57:01;;;;;;;;;;;27.10;23.00;;;;;;21168517;28;19924;-57
2023/05/05 16:07:02;;;;;;;;;;;27.20;23.50;;;;;;21169587;27;20349;-61
2023/05/05 16:17:03;;;;;;;;;;;27.10;23.90;;;;;;21161251;27;19946;-59
2023/05/05 16:27:03;;;;;;;;;;;26.90;24.20;;;;;;21164446;27;19971;-57
2023/05/05 16:37:04;;;;;;;;;;;26.90;23.90;;;;;;21170078;28;20016;-58
2023/05/05 16:47:04;;;;;;;;;;;26.90;24.00;;;;;;21170170;27;20027;-55
2023/05/05 16:57:05;;;;;;;;;;;27.10;23.50;;;;;;21165632;28;19975;-55
2023/05/05 17:07:06;;;;;;;;;;;26.90;23.10;;;;;;21164781;28;19982;-56
2023/05/05 17:17:06;;;;;;;;;;;26.90;24.20;;;;;;21146698;27;19974;-54
2023/05/05 17:27:07;;;;;;;;;;;26.80;24.30;;;;;;21231642;27;20018;-54
2023/05/05 17:37:08;;;;;;;;;;;26.70;23.00;;;;;;21164375;28;19924;-57
2023/05/05 17:47:11;;;;;;;;;;;26.60;23.20;;;;;;21163895;27;20367;-56
2023/05/05 17:57:12;;;;;;;;;;;26.20;23.50;;;;;;21180415;27;19927;-58
2023/05/05 18:07:13;;;;;;;;;;;26.20;24.20;;;;;;21206693;28;19985;-58
2023/05/05 18:17:14;;;;;;;;;;;26.10;24.00;;;;;;21168612;28;19931;-58
2023/05/05 18:27:14;;;;;;;;;;;25.90;23.50;;;;;;21230237;28;19924;-57
2023/05/05 18:37:15;;;;;;;;;;;25.60;23.30;;;;;;21185572;28;19927;-58
2023/05/05 18:47:16;;;;;;;;;;;25.30;22.10;;;;;;21133874;28;20297;-57
2023/05/05 18:57:16;;;;;;;;;;;25.30;21.90;;;;;;21075226;28;19967;-55
2023/05/05 19:07:17;;;;;;;;;;;25.20;21.00;;;;;;21075267;28;19924;-54
2023/05/05 19:17:17;;;;;;;;;;;25.00;20.50;;;;;;21083096;28;20352;-54
2023/05/05 19:27:18;;;;;;;;;;;24.90;20.30;;;;;;21091388;28;19924;-55
2023/05/05 19:37:19;;;;;;;;;;;24.70;19.60;;;;;;21089470;28;19925;-56
2023/05/05 19:47:19;;;;;;;;;;;24.70;20.10;;;;;;21087652;28;19924;-56
2023/05/05 19:57:21;;;;;;;;;;;24.50;20.70;;;;;;21087799;28;19931;-55
2023/05/05 20:07:21;;;;;;;;;;;24.30;21.40;;;;;;21087507;28;19932;-56
2023/05/05 20:17:22;;;;;;;;;;;24.10;22.10;;;;;;21085308;28;19937;-55
2023/05/05 20:27:23;;;;;;;;;;;24.00;22.40;;;;;;21086612;28;19963;-57
2023/05/05 20:37:25;;;;;;;;;;;23.90;22.50;;;;;;21083894;28;19924;-56
2023/05/05 20:47:26;;;;;;;;;;;23.90;23.20;;;;;;21084779;28;19924;-57
2023/05/05 20:57:27;;;;;;;;;;;23.60;22.20;;;;;;21083868;28;19924;-54
2023/05/05 21:07:33;;;;;;;;;;;23.60;22.50;;;;;;21082275;28;19928;-58
2023/05/05 21:17:34;;;;;;;;;;;23.60;22.90;;;;;;21080818;28;19978;-56
2023/05/05 21:27:35;;;;;;;;;;;23.40;23.50;;;;;;21080741;28;19924;-55
2023/05/05 21:37:36;;;;;;;;;;;23.00;23.90;;;;;;21078457;28;19931;-57
2023/05/05 21:47:37;;;;;;;;;;;22.90;23.80;;;;;;21079542;28;19970;-54
2023/05/05 21:57:37;;;;;;;;;;;22.80;24.20;;;;;;21077565;28;20238;-57
2023/05/05 22:07:39;;;;;;;;;;;22.80;24.80;;;;;;21077473;28;19924;-55
2023/05/05 22:17:39;;;;;;;;;;;22.70;24.80;;;;;;21077818;28;19924;-54
2023/05/05 22:27:40;;;;;;;;;;;22.60;24.70;;;;;;21078018;28;19963;-55
2023/05/05 22:37:41;;;;;;;;;;;22.50;25.00;;;;;;21076406;28;19978;-55
2023/05/05 22:47:41;;;;;;;;;;;22.30;25.90;;;;;;21089741;28;20010;-54
2023/05/05 22:57:42;;;;;;;;;;;21.90;27.30;;;;;;21092901;28;20416;-54
2023/05/05 23:07:43;;;;;;;;;;;21.20;28.00;;;;;;21092155;28;19931;-54
2023/05/05 23:17:43;;;;;;;;;;;20.70;28.30;;;;;;21091205;28;19924;-54
2023/05/05 23:27:44;;;;;;;;;;;20.50;28.70;;;;;;21090492;28;19967;-53
2023/05/05 23:37:44;;;;;;;;;;;20.30;28.90;;;;;;21088655;28;19978;-54
2023/05/05 23:47:45;;;;;;;;;;;20.20;29.30;;;;;;21089191;28;20293;-54
2023/05/05 23:57:46;;;;;;;;;;;20.20;29.50;;;;;;21087062;28;19964;-55
